sensor_id;sensor_type;location;lat;lon;timestamp;temperature;humidity
11894;DHT22;6006;49.696;8.662;2023-08-06T00:01:00;14.80;99.90
11894;DHT22;6006;49.696;8.662;2023-08-06T00:03:27;14.80;99.90
11894;DHT22;6006;49.696;8.662;2023-08-06T00:05:54;14.80;99.90
11894;DHT22;6006;49.696;8.662;2023-08-06T00:08:21;14.80;99.90
11894;DHT22;6006;49.696;8.662;2023-08-06T00:10:48;14.80;99.90
11894;DHT22;6006;49.696;8.662;2023-08-06T00:13:16;14.80;99.90
11894;DHT22;6006;49.696;8.662;2023-08-06T00:15:43;14.80;99.90
11894;DHT22;6006;49.696;8.662;2023-08-06T00:18:10;14.80;99.90
11894;DHT22;6006;49.696;8.662;2023-08-06T00:20:39;14.90;99.90
11894;DHT22;6006;49.696;8.662;2023-08-06T00:23:07;14.90;99.90
11894;DHT22;6006;49.696;8.662;2023-08-06T00:25:34;14.90;99.90
11894;DHT22;6006;49.696;8.662;2023-08-06T00:28:00;14.90;99.90
11894;DHT22;6006;49.696;8.662;2023-08-06T00:30:29;14.90;99.90
11894;DHT22;6006;49.696;8.662;2023-08-06T00:32:55;15.00;99.90
11894;DHT22;6006;49.696;8.662;2023-08-06T00:35:22;15.00;99.90
11894;DHT22;6006;49.696;8.662;2023-08-06T00:37:49;15.00;99.90
11894;DHT22;6006;49.696;8.662;2023-08-06T00:40:16;15.00;99.90
11894;DHT22;6006;49.696;8.662;2023-08-06T00:42:46;15.00;99.90
11894;DHT22;6006;49.696;8.662;2023-08-06T00:45:13;15.00;99.90
11894;DHT22;6006;49.696;8.662;2023-08-06T00:47:41;15.00;99.90
11894;DHT22;6006;49.696;8.662;2023-08-06T00:50:09;15.00;99.90
11894;DHT22;6006;49.696;8.662;2023-08-06T00:52:36;15.10;99.90
11894;DHT22;6006;49.696;8.662;2023-08-06T00:55:04;15.20;99.90
11894;DHT22;6006;49.696;8.662;2023-08-06T00:57:32;15.20;99.90
11894;DHT22;6006;49.696;8.662;2023-08-06T00:59:59;15.20;99.90
11894;DHT22;6006;49.696;8.662;2023-08-06T01:02:25;15.20;99.90
11894;DHT22;6006;49.696;8.662;2023-08-06T01:04:54;15.20;99.90
11894;DHT22;6006;49.696;8.662;2023-08-06T01:07:32;15.20;99.90
11894;DHT22;6006;49.696;8.662;2023-08-06T01:10:15;15.20;99.90
11894;DHT22;6006;49.696;8.662;2023-08-06T01:12:48;15.20;99.90
11894;DHT22;6006;49.696;8.662;2023-08-06T01:15:20;15.20;99.90
11894;DHT22;6006;49.696;8.662;2023-08-06T01:17:48;15.20;99.90
11894;DHT22;6006;49.696;8.662;2023-08-06T01:20:17;15.20;99.90
11894;DHT22;6006;49.696;8.662;2023-08-06T01:22:45;15.20;99.90
11894;DHT22;6006;49.696;8.662;2023-08-06T01:25:15;15.30;99.90
11894;DHT22;6006;49.696;8.662;2023-08-06T01:27:46;15.30;99.90
11894;DHT22;6006;49.696;8.662;2023-08-06T01:30:17;15.30;99.90
11894;DHT22;6006;49.696;8.662;2023-08-06T01:32:49;15.40;99.90
11894;DHT22;6006;49.696;8.662;2023-08-06T01:35:19;15.40;99.90
11894;DHT22;6006;49.696;8.662;2023-08-06T01:37:48;15.40;99.90
11894;DHT22;6006;49.696;8.662;2023-08-06T01:40:15;15.50;99.90
11894;DHT22;6006;49.696;8.662;2023-08-06T01:42:42;15.50;99.90
11894;DHT22;6006;49.696;8.662;2023-08-06T01:45:09;15.50;99.90
11894;DHT22;6006;49.696;8.662;2023-08-06T01:47:36;15.40;99.90
11894;DHT22;6006;49.696;8.662;2023-08-06T01:50:04;15.50;99.90
11894;DHT22;6006;49.696;8.662;2023-08-06T01:52:31;15.50;99.90
11894;DHT22;6006;49.696;8.662;2023-08-06T01:54:59;15.50;99.90
11894;DHT22;6006;49.696;8.662;2023-08-06T01:57:26;15.50;99.90
11894;DHT22;6006;49.696;8.662;2023-08-06T01:59:53;15.40;99.90
11894;DHT22;6006;49.696;8.662;2023-08-06T02:02:20;15.50;99.90
11894;DHT22;6006;49.696;8.662;2023-08-06T02:04:46;15.60;99.90
11894;DHT22;6006;49.696;8.662;2023-08-06T02:07:13;15.60;99.90
11894;DHT22;6006;49.696;8.662;2023-08-06T02:09:40;15.60;99.90
11894;DHT22;6006;49.696;8.662;2023-08-06T02:12:08;15.60;99.90
11894;DHT22;6006;49.696;8.662;2023-08-06T02:14:35;15.60;99.90
11894;DHT22;6006;49.696;8.662;2023-08-06T02:17:02;15.50;99.90
11894;DHT22;6006;49.696;8.662;2023-08-06T02:19:29;15.50;99.90
11894;DHT22;6006;49.696;8.662;2023-08-06T02:21:56;15.50;99.90
11894;DHT22;6006;49.696;8.662;2023-08-06T02:24:23;15.50;99.90
11894;DHT22;6006;49.696;8.662;2023-08-06T02:26:50;15.70;99.90
11894;DHT22;6006;49.696;8.662;2023-08-06T02:29:22;15.60;99.90
11894;DHT22;6006;49.696;8.662;2023-08-06T02:31:49;15.60;99.90
11894;DHT22;6006;49.696;8.662;2023-08-06T02:34:16;15.60;99.90
11894;DHT22;6006;49.696;8.662;2023-08-06T02:36:43;15.60;99.90
11894;DHT22;6006;49.696;8.662;2023-08-06T02:39:10;15.60;99.90
11894;DHT22;6006;49.696;8.662;2023-08-06T02:41:36;15.70;99.90
11894;DHT22;6006;49.696;8.662;2023-08-06T02:44:03;15.70;99.90
11894;DHT22;6006;49.696;8.662;2023-08-06T02:46:32;15.60;99.90
11894;DHT22;6006;49.696;8.662;2023-08-06T02:48:59;15.50;99.90
11894;DHT22;6006;49.696;8.662;2023-08-06T02:51:25;15.50;99.90
11894;DHT22;6006;49.696;8.662;2023-08-06T02:53:52;15.50;99.90
11894;DHT22;6006;49.696;8.662;2023-08-06T02:56:19;15.50;99.90
11894;DHT22;6006;49.696;8.662;2023-08-06T02:58:46;15.50;99.90
11894;DHT22;6006;49.696;8.662;2023-08-06T03:01:14;15.50;99.90
11894;DHT22;6006;49.696;8.662;2023-08-06T03:03:42;15.50;99.90
11894;DHT22;6006;49.696;8.662;2023-08-06T03:06:09;15.50;99.90
11894;DHT22;6006;49.696;8.662;2023-08-06T03:08:36;15.50;99.90
11894;DHT22;6006;49.696;8.662;2023-08-06T03:11:03;15.50;99.90
11894;DHT22;6006;49.696;8.662;2023-08-06T03:13:30;15.50;99.90
11894;DHT22;6006;49.696;8.662;2023-08-06T03:15:58;15.50;99.90
11894;DHT22;6006;49.696;8.662;2023-08-06T03:18:26;15.50;99.90
11894;DHT22;6006;49.696;8.662;2023-08-06T03:20:55;15.50;99.90
11894;DHT22;6006;49.696;8.662;2023-08-06T03:23:22;15.50;99.90
11894;DHT22;6006;49.696;8.662;2023-08-06T03:25:49;15.50;99.90
11894;DHT22;6006;49.696;8.662;2023-08-06T03:28:16;15.50;99.90
11894;DHT22;6006;49.696;8.662;2023-08-06T03:30:43;15.50;99.90
11894;DHT22;6006;49.696;8.662;2023-08-06T03:33:10;15.40;99.90
11894;DHT22;6006;49.696;8.662;2023-08-06T03:35:36;15.40;99.90
11894;DHT22;6006;49.696;8.662;2023-08-06T03:38:05;15.40;99.90
11894;DHT22;6006;49.696;8.662;2023-08-06T03:40:32;15.50;99.90
11894;DHT22;6006;49.696;8.662;2023-08-06T03:43:01;15.40;99.90
11894;DHT22;6006;49.696;8.662;2023-08-06T03:45:28;15.40;99.90
11894;DHT22;6006;49.696;8.662;2023-08-06T03:47:54;15.40;99.90
11894;DHT22;6006;49.696;8.662;2023-08-06T03:50:21;15.40;99.90
11894;DHT22;6006;49.696;8.662;2023-08-06T03:52:48;15.40;99.90
11894;DHT22;6006;49.696;8.662;2023-08-06T03:55:16;15.40;99.90
11894;DHT22;6006;49.696;8.662;2023-08-06T03:57:43;15.40;99.90
11894;DHT22;6006;49.696;8.662;2023-08-06T04:00:11;15.40;99.90
11894;DHT22;6006;49.696;8.662;2023-08-06T04:02:38;15.30;99.90
11894;DHT22;6006;49.696;8.662;2023-08-06T04:05:05;15.30;99.90
11894;DHT22;6006;49.696;8.662;2023-08-06T04:07:32;15.20;99.90
11894;DHT22;6006;49.696;8.662;2023-08-06T04:10:00;15.10;99.90
11894;DHT22;6006;49.696;8.662;2023-08-06T04:12:28;15.10;99.90
11894;DHT22;6006;49.696;8.662;2023-08-06T04:14:57;15.00;99.90
11894;DHT22;6006;49.696;8.662;2023-08-06T04:17:24;15.00;99.90
11894;DHT22;6006;49.696;8.662;2023-08-06T04:19:52;15.00;99.90
11894;DHT22;6006;49.696;8.662;2023-08-06T04:22:21;14.90;99.90
11894;DHT22;6006;49.696;8.662;2023-08-06T04:24:48;14.90;99.90
11894;DHT22;6006;49.696;8.662;2023-08-06T04:27:16;14.80;99.90
11894;DHT22;6006;49.696;8.662;2023-08-06T04:29:44;14.80;99.90
11894;DHT22;6006;49.696;8.662;2023-08-06T04:32:13;14.80;99.90
11894;DHT22;6006;49.696;8.662;2023-08-06T04:34:40;14.70;99.90
11894;DHT22;6006;49.696;8.662;2023-08-06T04:37:07;14.70;99.90
11894;DHT22;6006;49.696;8.662;2023-08-06T04:39:34;14.70;99.90
11894;DHT22;6006;49.696;8.662;2023-08-06T04:42:01;14.60;99.90
11894;DHT22;6006;49.696;8.662;2023-08-06T04:44:28;14.60;99.90
11894;DHT22;6006;49.696;8.662;2023-08-06T04:46:56;14.60;99.90
11894;DHT22;6006;49.696;8.662;2023-08-06T04:49:24;14.60;99.90
11894;DHT22;6006;49.696;8.662;2023-08-06T04:51:51;14.60;99.90
11894;DHT22;6006;49.696;8.662;2023-08-06T04:54:18;14.60;99.90
11894;DHT22;6006;49.696;8.662;2023-08-06T04:56:45;14.60;99.90
11894;DHT22;6006;49.696;8.662;2023-08-06T04:59:12;14.60;99.90
11894;DHT22;6006;49.696;8.662;2023-08-06T05:01:39;14.60;99.90
11894;DHT22;6006;49.696;8.662;2023-08-06T05:04:07;14.60;99.90
11894;DHT22;6006;49.696;8.662;2023-08-06T05:06:34;14.60;99.90
11894;DHT22;6006;49.696;8.662;2023-08-06T05:09:03;14.60;99.90
11894;DHT22;6006;49.696;8.662;2023-08-06T05:11:31;14.60;99.90
11894;DHT22;6006;49.696;8.662;2023-08-06T05:13:58;14.60;99.90
11894;DHT22;6006;49.696;8.662;2023-08-06T05:16:25;14.70;99.90
11894;DHT22;6006;49.696;8.662;2023-08-06T05:18:52;14.70;99.90
11894;DHT22;6006;49.696;8.662;2023-08-06T05:21:20;14.70;99.90
11894;DHT22;6006;49.696;8.662;2023-08-06T05:23:47;14.70;99.90
11894;DHT22;6006;49.696;8.662;2023-08-06T05:26:14;14.60;99.90
11894;DHT22;6006;49.696;8.662;2023-08-06T05:28:43;14.60;99.90
11894;DHT22;6006;49.696;8.662;2023-08-06T05:31:10;14.60;99.90
11894;DHT22;6006;49.696;8.662;2023-08-06T05:33:39;14.60;99.90
11894;DHT22;6006;49.696;8.662;2023-08-06T05:36:06;14.60;99.90
11894;DHT22;6006;49.696;8.662;2023-08-06T05:38:34;14.60;99.90
11894;DHT22;6006;49.696;8.662;2023-08-06T05:41:01;14.50;99.90
11894;DHT22;6006;49.696;8.662;2023-08-06T05:43:28;14.50;99.90
11894;DHT22;6006;49.696;8.662;2023-08-06T05:45:56;14.50;99.90
11894;DHT22;6006;49.696;8.662;2023-08-06T05:48:23;14.40;99.90
11894;DHT22;6006;49.696;8.662;2023-08-06T05:50:51;14.40;99.90
11894;DHT22;6006;49.696;8.662;2023-08-06T05:53:18;14.40;99.90
11894;DHT22;6006;49.696;8.662;2023-08-06T05:55:46;14.30;99.90
11894;DHT22;6006;49.696;8.662;2023-08-06T05:58:13;14.30;99.90
11894;DHT22;6006;49.696;8.662;2023-08-06T06:00:40;14.30;99.90
11894;DHT22;6006;49.696;8.662;2023-08-06T06:03:07;14.30;99.90
11894;DHT22;6006;49.696;8.662;2023-08-06T06:05:35;14.30;99.90
11894;DHT22;6006;49.696;8.662;2023-08-06T06:08:03;14.40;99.90
11894;DHT22;6006;49.696;8.662;2023-08-06T06:10:30;14.30;99.90
11894;DHT22;6006;49.696;8.662;2023-08-06T06:12:59;14.30;99.90
11894;DHT22;6006;49.696;8.662;2023-08-06T06:15:25;14.30;99.90
11894;DHT22;6006;49.696;8.662;2023-08-06T06:17:52;14.30;99.90
11894;DHT22;6006;49.696;8.662;2023-08-06T06:20:19;14.30;99.90
11894;DHT22;6006;49.696;8.662;2023-08-06T06:22:46;14.30;99.90
11894;DHT22;6006;49.696;8.662;2023-08-06T06:25:13;14.30;99.90
11894;DHT22;6006;49.696;8.662;2023-08-06T06:27:40;14.30;99.90
11894;DHT22;6006;49.696;8.662;2023-08-06T06:30:09;14.30;99.90
11894;DHT22;6006;49.696;8.662;2023-08-06T06:32:37;14.40;99.90
11894;DHT22;6006;49.696;8.662;2023-08-06T06:35:05;14.30;99.90
11894;DHT22;6006;49.696;8.662;2023-08-06T06:37:32;14.40;99.90
11894;DHT22;6006;49.696;8.662;2023-08-06T06:39:59;14.40;99.90
11894;DHT22;6006;49.696;8.662;2023-08-06T06:42:26;14.40;99.90
11894;DHT22;6006;49.696;8.662;2023-08-06T06:44:53;14.40;99.90
11894;DHT22;6006;49.696;8.662;2023-08-06T06:47:21;14.40;99.90
11894;DHT22;6006;49.696;8.662;2023-08-06T06:49:48;14.30;99.90
11894;DHT22;6006;49.696;8.662;2023-08-06T06:52:18;14.30;99.90
11894;DHT22;6006;49.696;8.662;2023-08-06T06:54:45;14.30;99.90
11894;DHT22;6006;49.696;8.662;2023-08-06T06:57:12;14.30;99.90
11894;DHT22;6006;49.696;8.662;2023-08-06T06:59:39;14.30;99.90
11894;DHT22;6006;49.696;8.662;2023-08-06T07:02:06;14.40;99.90
11894;DHT22;6006;49.696;8.662;2023-08-06T07:04:34;14.50;99.90
11894;DHT22;6006;49.696;8.662;2023-08-06T07:07:01;14.50;99.90
11894;DHT22;6006;49.696;8.662;2023-08-06T07:09:28;14.60;99.90
11894;DHT22;6006;49.696;8.662;2023-08-06T07:11:55;14.60;99.90
11894;DHT22;6006;49.696;8.662;2023-08-06T07:14:22;14.60;99.90
11894;DHT22;6006;49.696;8.662;2023-08-06T07:16:49;14.60;99.90
11894;DHT22;6006;49.696;8.662;2023-08-06T07:19:16;14.70;99.90
11894;DHT22;6006;49.696;8.662;2023-08-06T07:21:45;14.60;99.90
11894;DHT22;6006;49.696;8.662;2023-08-06T07:24:12;14.60;99.90
11894;DHT22;6006;49.696;8.662;2023-08-06T07:26:38;14.60;99.90
11894;DHT22;6006;49.696;8.662;2023-08-06T07:29:05;14.60;99.90
11894;DHT22;6006;49.696;8.662;2023-08-06T07:31:32;14.60;99.90
11894;DHT22;6006;49.696;8.662;2023-08-06T07:33:59;14.60;99.90
11894;DHT22;6006;49.696;8.662;2023-08-06T07:36:26;14.50;99.90
11894;DHT22;6006;49.696;8.662;2023-08-06T07:38:55;14.50;99.90
11894;DHT22;6006;49.696;8.662;2023-08-06T07:41:22;14.60;99.90
11894;DHT22;6006;49.696;8.662;2023-08-06T07:43:49;14.60;99.90
11894;DHT22;6006;49.696;8.662;2023-08-06T07:46:16;14.70;99.90
11894;DHT22;6006;49.696;8.662;2023-08-06T07:48:43;14.60;99.90
11894;DHT22;6006;49.696;8.662;2023-08-06T07:51:10;14.60;99.90
11894;DHT22;6006;49.696;8.662;2023-08-06T07:53:37;14.70;99.90
11894;DHT22;6006;49.696;8.662;2023-08-06T07:56:05;14.80;99.90
11894;DHT22;6006;49.696;8.662;2023-08-06T07:58:32;14.90;99.90
11894;DHT22;6006;49.696;8.662;2023-08-06T08:00:59;15.00;99.90
11894;DHT22;6006;49.696;8.662;2023-08-06T08:03:27;15.10;99.90
11894;DHT22;6006;49.696;8.662;2023-08-06T08:05:55;15.30;99.90
11894;DHT22;6006;49.696;8.662;2023-08-06T08:08:24;15.30;99.90
11894;DHT22;6006;49.696;8.662;2023-08-06T08:10:51;15.50;99.90
11894;DHT22;6006;49.696;8.662;2023-08-06T08:13:19;15.60;99.90
11894;DHT22;6006;49.696;8.662;2023-08-06T08:15:46;15.80;99.90
11894;DHT22;6006;49.696;8.662;2023-08-06T08:18:13;15.70;99.90
11894;DHT22;6006;49.696;8.662;2023-08-06T08:20:40;15.80;99.90
11894;DHT22;6006;49.696;8.662;2023-08-06T08:23:07;15.90;99.90
11894;DHT22;6006;49.696;8.662;2023-08-06T08:25:34;16.00;99.90
11894;DHT22;6006;49.696;8.662;2023-08-06T08:28:01;15.90;99.90
11894;DHT22;6006;49.696;8.662;2023-08-06T08:30:29;15.80;99.90
11894;DHT22;6006;49.696;8.662;2023-08-06T08:32:56;15.80;99.90
11894;DHT22;6006;49.696;8.662;2023-08-06T08:35:23;15.90;99.90
11894;DHT22;6006;49.696;8.662;2023-08-06T08:37:50;15.90;99.90
11894;DHT22;6006;49.696;8.662;2023-08-06T08:40:17;15.80;99.90
11894;DHT22;6006;49.696;8.662;2023-08-06T08:42:44;16.10;99.90
11894;DHT22;6006;49.696;8.662;2023-08-06T08:45:12;16.30;99.90
11894;DHT22;6006;49.696;8.662;2023-08-06T08:47:44;16.70;99.90
11894;DHT22;6006;49.696;8.662;2023-08-06T08:50:13;16.90;99.90
11894;DHT22;6006;49.696;8.662;2023-08-06T08:52:40;16.90;99.90
11894;DHT22;6006;49.696;8.662;2023-08-06T08:55:08;17.10;99.90
11894;DHT22;6006;49.696;8.662;2023-08-06T08:57:36;17.20;99.90
11894;DHT22;6006;49.696;8.662;2023-08-06T09:00:03;17.40;99.90
11894;DHT22;6006;49.696;8.662;2023-08-06T09:02:32;17.40;99.90
11894;DHT22;6006;49.696;8.662;2023-08-06T09:05:01;17.50;99.90
11894;DHT22;6006;49.696;8.662;2023-08-06T09:07:32;17.70;99.90
11894;DHT22;6006;49.696;8.662;2023-08-06T09:10:02;17.70;99.90
11894;DHT22;6006;49.696;8.662;2023-08-06T09:12:30;17.60;99.90
11894;DHT22;6006;49.696;8.662;2023-08-06T09:14:57;17.40;99.90
11894;DHT22;6006;49.696;8.662;2023-08-06T09:17:25;17.00;99.90
11894;DHT22;6006;49.696;8.662;2023-08-06T09:19:53;16.70;99.90
11894;DHT22;6006;49.696;8.662;2023-08-06T09:22:22;16.70;99.90
11894;DHT22;6006;49.696;8.662;2023-08-06T09:24:49;16.40;99.90
11894;DHT22;6006;49.696;8.662;2023-08-06T09:27:16;16.40;99.90
11894;DHT22;6006;49.696;8.662;2023-08-06T09:29:44;16.30;99.90
11894;DHT22;6006;49.696;8.662;2023-08-06T09:32:12;16.20;99.90
11894;DHT22;6006;49.696;8.662;2023-08-06T09:34:40;16.10;99.90
11894;DHT22;6006;49.696;8.662;2023-08-06T09:37:08;16.20;99.90
11894;DHT22;6006;49.696;8.662;2023-08-06T09:39:39;16.40;99.90
11894;DHT22;6006;49.696;8.662;2023-08-06T09:42:06;16.50;99.90
11894;DHT22;6006;49.696;8.662;2023-08-06T09:44:33;16.80;99.90
11894;DHT22;6006;49.696;8.662;2023-08-06T09:47:01;17.20;99.90
11894;DHT22;6006;49.696;8.662;2023-08-06T09:49:40;17.30;99.90
11894;DHT22;6006;49.696;8.662;2023-08-06T09:52:10;17.40;99.90
11894;DHT22;6006;49.696;8.662;2023-08-06T09:54:39;17.40;99.90
11894;DHT22;6006;49.696;8.662;2023-08-06T09:57:06;17.20;99.90
11894;DHT22;6006;49.696;8.662;2023-08-06T09:59:33;17.10;99.90
11894;DHT22;6006;49.696;8.662;2023-08-06T10:02:02;17.00;99.90
11894;DHT22;6006;49.696;8.662;2023-08-06T10:04:34;16.70;99.90
11894;DHT22;6006;49.696;8.662;2023-08-06T10:07:02;16.70;99.90
11894;DHT22;6006;49.696;8.662;2023-08-06T10:09:28;16.60;99.90
11894;DHT22;6006;49.696;8.662;2023-08-06T10:11:58;16.50;99.90
11894;DHT22;6006;49.696;8.662;2023-08-06T10:14:28;16.40;99.90
11894;DHT22;6006;49.696;8.662;2023-08-06T10:16:57;16.50;99.90
11894;DHT22;6006;49.696;8.662;2023-08-06T10:19:26;16.60;99.90
11894;DHT22;6006;49.696;8.662;2023-08-06T10:22:08;16.60;99.60
11894;DHT22;6006;49.696;8.662;2023-08-06T10:24:48;16.60;99.90
11894;DHT22;6006;49.696;8.662;2023-08-06T10:27:22;16.50;99.90
11894;DHT22;6006;49.696;8.662;2023-08-06T10:29:49;16.60;99.90
11894;DHT22;6006;49.696;8.662;2023-08-06T10:32:17;16.60;99.90
11894;DHT22;6006;49.696;8.662;2023-08-06T10:34:55;16.60;99.90
11894;DHT22;6006;49.696;8.662;2023-08-06T10:37:23;16.70;99.90
11894;DHT22;6006;49.696;8.662;2023-08-06T10:39:50;16.80;99.90
11894;DHT22;6006;49.696;8.662;2023-08-06T10:42:22;16.80;99.90
11894;DHT22;6006;49.696;8.662;2023-08-06T10:45:13;16.70;1.00
11894;DHT22;6006;49.696;8.662;2023-08-06T10:47:41;16.60;16.50
11894;DHT22;6006;49.696;8.662;2023-08-06T10:50:11;16.60;99.90
11894;DHT22;6006;49.696;8.662;2023-08-06T10:52:39;16.60;99.90
11894;DHT22;6006;49.696;8.662;2023-08-06T10:55:07;16.50;99.90
11894;DHT22;6006;49.696;8.662;2023-08-06T10:57:36;16.20;99.90
11894;DHT22;6006;49.696;8.662;2023-08-06T11:00:04;16.10;99.90
11894;DHT22;6006;49.696;8.662;2023-08-06T11:02:33;15.90;99.90
11894;DHT22;6006;49.696;8.662;2023-08-06T11:05:05;15.90;99.90
11894;DHT22;6006;49.696;8.662;2023-08-06T11:07:33;15.80;99.90
11894;DHT22;6006;49.696;8.662;2023-08-06T11:10:03;15.80;99.90
11894;DHT22;6006;49.696;8.662;2023-08-06T11:12:31;15.70;99.90
11894;DHT22;6006;49.696;8.662;2023-08-06T11:14:59;15.60;99.90
11894;DHT22;6006;49.696;8.662;2023-08-06T11:17:28;15.60;99.90
11894;DHT22;6006;49.696;8.662;2023-08-06T11:19:55;15.60;99.90
11894;DHT22;6006;49.696;8.662;2023-08-06T11:22:22;15.70;99.90
11894;DHT22;6006;49.696;8.662;2023-08-06T11:24:49;15.70;99.90
11894;DHT22;6006;49.696;8.662;2023-08-06T11:27:16;15.70;99.90
11894;DHT22;6006;49.696;8.662;2023-08-06T11:29:44;15.50;99.90
11894;DHT22;6006;49.696;8.662;2023-08-06T11:32:12;15.60;99.90
11894;DHT22;6006;49.696;8.662;2023-08-06T11:34:39;15.60;99.90
11894;DHT22;6006;49.696;8.662;2023-08-06T11:37:07;15.50;99.90
11894;DHT22;6006;49.696;8.662;2023-08-06T11:39:36;15.50;99.90
11894;DHT22;6006;49.696;8.662;2023-08-06T11:42:03;15.40;99.90
11894;DHT22;6006;49.696;8.662;2023-08-06T11:44:31;15.40;99.90
11894;DHT22;6006;49.696;8.662;2023-08-06T11:46:59;15.40;99.90
11894;DHT22;6006;49.696;8.662;2023-08-06T11:49:43;15.50;99.90
11894;DHT22;6006;49.696;8.662;2023-08-06T11:52:16;15.50;99.90
11894;DHT22;6006;49.696;8.662;2023-08-06T11:54:45;15.60;99.90
11894;DHT22;6006;49.696;8.662;2023-08-06T11:57:12;15.50;99.90
11894;DHT22;6006;49.696;8.662;2023-08-06T11:59:42;15.40;99.90
11894;DHT22;6006;49.696;8.662;2023-08-06T12:02:09;15.40;99.90
11894;DHT22;6006;49.696;8.662;2023-08-06T12:05:00;15.40;99.90
11894;DHT22;6006;49.696;8.662;2023-08-06T12:07:29;15.50;99.90
11894;DHT22;6006;49.696;8.662;2023-08-06T12:09:56;15.50;63.40
11894;DHT22;6006;49.696;8.662;2023-08-06T12:12:23;15.50;99.90
11894;DHT22;6006;49.696;8.662;2023-08-06T12:14:50;15.50;99.90
11894;DHT22;6006;49.696;8.662;2023-08-06T12:17:17;15.50;99.90
11894;DHT22;6006;49.696;8.662;2023-08-06T12:19:46;15.50;99.90
11894;DHT22;6006;49.696;8.662;2023-08-06T12:22:15;15.50;99.90
11894;DHT22;6006;49.696;8.662;2023-08-06T12:24:42;15.50;99.90
11894;DHT22;6006;49.696;8.662;2023-08-06T12:27:09;15.40;99.90
11894;DHT22;6006;49.696;8.662;2023-08-06T12:29:37;15.40;99.90
11894;DHT22;6006;49.696;8.662;2023-08-06T12:32:06;15.50;99.90
11894;DHT22;6006;49.696;8.662;2023-08-06T12:34:34;15.30;99.90
11894;DHT22;6006;49.696;8.662;2023-08-06T12:37:01;15.30;99.90
11894;DHT22;6006;49.696;8.662;2023-08-06T12:39:29;15.30;99.90
11894;DHT22;6006;49.696;8.662;2023-08-06T12:41:57;15.20;99.90
11894;DHT22;6006;49.696;8.662;2023-08-06T12:44:24;15.30;99.90
11894;DHT22;6006;49.696;8.662;2023-08-06T12:46:51;15.30;51.90
11894;DHT22;6006;49.696;8.662;2023-08-06T12:49:18;15.50;1.00
11894;DHT22;6006;49.696;8.662;2023-08-06T12:51:46;15.50;99.90
11894;DHT22;6006;49.696;8.662;2023-08-06T12:54:13;15.60;7.10
11894;DHT22;6006;49.696;8.662;2023-08-06T12:56:42;15.70;1.00
11894;DHT22;6006;49.696;8.662;2023-08-06T12:59:11;15.70;1.00
11894;DHT22;6006;49.696;8.662;2023-08-06T13:01:38;15.80;1.00
11894;DHT22;6006;49.696;8.662;2023-08-06T13:04:05;15.80;86.30
11894;DHT22;6006;49.696;8.662;2023-08-06T13:06:32;15.90;10.80
11894;DHT22;6006;49.696;8.662;2023-08-06T13:09:02;15.90;1.00
11894;DHT22;6006;49.696;8.662;2023-08-06T13:11:29;16.00;1.00
11894;DHT22;6006;49.696;8.662;2023-08-06T13:14:01;16.10;1.00
11894;DHT22;6006;49.696;8.662;2023-08-06T13:16:30;16.20;1.00
11894;DHT22;6006;49.696;8.662;2023-08-06T13:18:57;16.10;1.00
11894;DHT22;6006;49.696;8.662;2023-08-06T13:21:24;16.00;1.00
11894;DHT22;6006;49.696;8.662;2023-08-06T13:23:51;16.00;1.00
11894;DHT22;6006;49.696;8.662;2023-08-06T13:26:18;15.90;1.00
11894;DHT22;6006;49.696;8.662;2023-08-06T13:28:44;16.00;1.00
11894;DHT22;6006;49.696;8.662;2023-08-06T13:31:13;16.00;1.00
11894;DHT22;6006;49.696;8.662;2023-08-06T13:33:39;16.00;1.00
11894;DHT22;6006;49.696;8.662;2023-08-06T13:36:06;16.10;1.00
11894;DHT22;6006;49.696;8.662;2023-08-06T13:38:33;16.10;1.00
11894;DHT22;6006;49.696;8.662;2023-08-06T13:41:01;16.10;1.00
11894;DHT22;6006;49.696;8.662;2023-08-06T13:43:28;16.20;1.00
11894;DHT22;6006;49.696;8.662;2023-08-06T13:45:55;16.20;1.00
11894;DHT22;6006;49.696;8.662;2023-08-06T13:48:23;16.20;1.00
11894;DHT22;6006;49.696;8.662;2023-08-06T13:50:50;16.10;99.90
11894;DHT22;6006;49.696;8.662;2023-08-06T13:53:17;16.00;1.00
11894;DHT22;6006;49.696;8.662;2023-08-06T13:55:44;15.90;1.00
11894;DHT22;6006;49.696;8.662;2023-08-06T13:58:11;15.90;1.00
11894;DHT22;6006;49.696;8.662;2023-08-06T14:00:38;15.90;1.00
11894;DHT22;6006;49.696;8.662;2023-08-06T14:03:05;15.70;1.00
11894;DHT22;6006;49.696;8.662;2023-08-06T14:05:33;15.70;1.00
11894;DHT22;6006;49.696;8.662;2023-08-06T14:08:00;15.70;1.00
11894;DHT22;6006;49.696;8.662;2023-08-06T14:10:27;15.70;1.00
11894;DHT22;6006;49.696;8.662;2023-08-06T14:12:54;15.70;1.00
11894;DHT22;6006;49.696;8.662;2023-08-06T14:15:21;15.80;1.00
11894;DHT22;6006;49.696;8.662;2023-08-06T14:17:48;15.80;99.90
11894;DHT22;6006;49.696;8.662;2023-08-06T14:20:15;15.70;1.00
11894;DHT22;6006;49.696;8.662;2023-08-06T14:22:43;15.80;1.00
11894;DHT22;6006;49.696;8.662;2023-08-06T14:25:10;15.90;1.00
11894;DHT22;6006;49.696;8.662;2023-08-06T14:27:37;15.90;1.00
11894;DHT22;6006;49.696;8.662;2023-08-06T14:30:05;15.90;1.00
11894;DHT22;6006;49.696;8.662;2023-08-06T14:32:33;15.90;1.00
11894;DHT22;6006;49.696;8.662;2023-08-06T14:35:00;16.00;1.00
11894;DHT22;6006;49.696;8.662;2023-08-06T14:37:27;15.90;1.00
11894;DHT22;6006;49.696;8.662;2023-08-06T14:39:55;16.00;1.00
11894;DHT22;6006;49.696;8.662;2023-08-06T14:42:22;16.00;1.00
11894;DHT22;6006;49.696;8.662;2023-08-06T14:44:49;15.90;1.00
11894;DHT22;6006;49.696;8.662;2023-08-06T14:47:16;16.00;1.00
11894;DHT22;6006;49.696;8.662;2023-08-06T14:49:43;15.90;1.00
11894;DHT22;6006;49.696;8.662;2023-08-06T14:52:11;15.80;1.00
11894;DHT22;6006;49.696;8.662;2023-08-06T14:54:38;15.80;1.00
11894;DHT22;6006;49.696;8.662;2023-08-06T14:57:06;15.80;1.00
11894;DHT22;6006;49.696;8.662;2023-08-06T14:59:33;15.90;1.00
11894;DHT22;6006;49.696;8.662;2023-08-06T15:02:00;15.80;1.00
11894;DHT22;6006;49.696;8.662;2023-08-06T15:04:27;15.80;1.00
11894;DHT22;6006;49.696;8.662;2023-08-06T15:06:55;15.80;1.00
11894;DHT22;6006;49.696;8.662;2023-08-06T15:09:22;15.80;1.00
11894;DHT22;6006;49.696;8.662;2023-08-06T15:11:49;15.70;1.00
11894;DHT22;6006;49.696;8.662;2023-08-06T15:14:17;15.70;1.00
11894;DHT22;6006;49.696;8.662;2023-08-06T15:16:46;15.70;1.00
11894;DHT22;6006;49.696;8.662;2023-08-06T15:19:13;15.70;1.00
11894;DHT22;6006;49.696;8.662;2023-08-06T15:21:40;15.70;1.00
11894;DHT22;6006;49.696;8.662;2023-08-06T15:24:08;15.70;1.00
11894;DHT22;6006;49.696;8.662;2023-08-06T15:26:35;15.60;1.00
11894;DHT22;6006;49.696;8.662;2023-08-06T15:29:02;15.60;1.00
11894;DHT22;6006;49.696;8.662;2023-08-06T15:31:37;15.60;5.30
11894;DHT22;6006;49.696;8.662;2023-08-06T15:34:05;15.50;41.60
11894;DHT22;6006;49.696;8.662;2023-08-06T15:36:32;15.50;1.00
11894;DHT22;6006;49.696;8.662;2023-08-06T15:38:59;15.50;1.00
11894;DHT22;6006;49.696;8.662;2023-08-06T15:41:26;15.40;99.90
11894;DHT22;6006;49.696;8.662;2023-08-06T15:43:53;15.50;99.90
11894;DHT22;6006;49.696;8.662;2023-08-06T15:46:20;15.50;99.90
11894;DHT22;6006;49.696;8.662;2023-08-06T15:48:48;15.40;99.90
11894;DHT22;6006;49.696;8.662;2023-08-06T15:51:15;15.30;99.90
11894;DHT22;6006;49.696;8.662;2023-08-06T15:53:42;15.40;99.90